Time;durP1;ratioP1;P1;durP2;ratioP2;P2;SDS_P1;SDS_P2;PMS_P1;PMS_P2;Temp;Humidity;BMP_temperature;BMP_pressure;BME280_temperature;BME280_humidity;BME280_pressure;Samples;Min_cycle;Max_cycle;Signal;HPM_P1;HPM_P2
2023/09/03 00:02:06;;;;;;;1.10;1.00;;;16.40;99.90;;;;;;5069233;28;20515;-79
2023/09/03 00:04:33;;;;;;;1.57;0.80;;;16.40;99.90;;;;;;5056814;28;20456;-77
2023/09/03 00:07:00;;;;;;;0.90;0.80;;;16.40;99.90;;;;;;5063482;28;21183;-77
2023/09/03 00:09:27;;;;;;;2.10;1.60;;;16.40;99.90;;;;;;5066118;28;20511;-76
2023/09/03 00:11:54;;;;;;;1.50;1.00;;;16.50;99.90;;;;;;5057139;28;20488;-77
2023/09/03 00:14:22;;;;;;;1.47;1.37;;;16.50;99.90;;;;;;5061838;28;20476;-78
2023/09/03 00:16:49;;;;;;;1.47;0.80;;;16.50;99.90;;;;;;5064574;28;20925;-78
2023/09/03 00:19:16;;;;;;;0.70;0.70;;;16.50;99.90;;;;;;5066795;28;20490;-78
2023/09/03 00:21:43;;;;;;;1.10;1.00;;;16.50;99.90;;;;;;5067544;28;21065;-77
2023/09/03 00:24:10;;;;;;;5.20;0.90;;;16.40;99.90;;;;;;5066282;28;20460;-77
2023/09/03 00:26:37;;;;;;;4.63;1.23;;;16.40;99.90;;;;;;5058687;28;20796;-80
2023/09/03 00:29:04;;;;;;;1.77;1.67;;;16.40;99.90;;;;;;5052537;28;20491;-78
2023/09/03 00:31:32;;;;;;;4.57;1.20;;;16.40;99.90;;;;;;5062015;28;20443;-77
2023/09/03 00:33:59;;;;;;;1.33;1.10;;;16.40;99.90;;;;;;5062416;28;20507;-78
2023/09/03 00:36:26;;;;;;;1.20;1.10;;;16.40;99.90;;;;;;5061611;28;20501;-77
2023/09/03 00:38:53;;;;;;;1.47;1.00;;;16.30;99.90;;;;;;5065409;28;20809;-77
2023/09/03 00:41:20;;;;;;;1.43;1.33;;;16.20;99.90;;;;;;5064731;28;20487;-77
2023/09/03 00:43:47;;;;;;;1.30;0.93;;;16.20;99.90;;;;;;5061809;28;20483;-79
2023/09/03 00:46:14;;;;;;;0.70;0.70;;;16.20;99.90;;;;;;5061266;28;20926;-77
2023/09/03 00:48:42;;;;;;;6.07;1.87;;;16.20;99.90;;;;;;5064218;28;20448;-80
2023/09/03 00:51:10;;;;;;;1.63;1.40;;;16.10;99.90;;;;;;5064011;28;20483;-76
2023/09/03 00:53:41;;;;;;;1.87;1.30;;;16.10;99.90;;;;;;5066953;28;20535;-77
2023/09/03 00:56:08;;;;;;;2.33;1.90;;;16.10;99.90;;;;;;5066508;28;20525;-79
2023/09/03 00:58:36;;;;;;;1.80;1.33;;;16.10;99.90;;;;;;5065808;28;20452;-78
2023/09/03 01:01:04;;;;;;;1.37;1.00;;;16.00;99.90;;;;;;5064738;28;20919;-79
2023/09/03 01:03:32;;;;;;;1.47;1.37;;;16.10;99.90;;;;;;5067787;28;20551;-79
2023/09/03 01:06:00;;;;;;;1.97;1.27;;;16.10;99.90;;;;;;5063298;28;20452;-79
2023/09/03 01:08:28;;;;;;;1.93;1.63;;;16.10;99.90;;;;;;5059042;28;20429;-78
2023/09/03 01:11:06;;;;;;;1.53;1.13;;;16.20;99.90;;;;;;5062061;28;20436;-77
2023/09/03 01:13:39;;;;;;;2.00;1.67;;;16.10;99.90;;;;;;5059362;28;20491;-77
2023/09/03 01:16:12;;;;;;;1.50;1.40;;;16.10;99.90;;;;;;5071233;28;20464;-76
2023/09/03 01:18:41;;;;;;;1.17;1.07;;;16.10;99.90;;;;;;5052531;28;20509;-77
2023/09/03 01:21:35;;;;;;;2.67;0.93;;;16.10;99.90;;;;;;5065912;28;21186;-78
2023/09/03 01:24:15;;;;;;;2.30;0.83;;;16.10;99.90;;;;;;5063302;28;20517;-76
2023/09/03 01:26:55;;;;;;;1.30;1.10;;;16.00;99.90;;;;;;5066572;28;20525;-76
2023/09/03 01:29:24;;;;;;;1.87;1.50;;;16.00;99.90;;;;;;5067670;28;20444;-76
2023/09/03 01:31:52;;;;;;;1.10;1.00;;;16.00;99.90;;;;;;5067304;28;20448;-77
2023/09/03 01:34:20;;;;;;;4.67;1.20;;;16.00;99.90;;;;;;5065885;28;20444;-76
2023/09/03 01:36:48;;;;;;;4.70;1.60;;;16.00;99.90;;;;;;5060411;28;20444;-76
2023/09/03 01:39:16;;;;;;;1.23;1.10;;;15.80;99.90;;;;;;5062295;28;20537;-76
2023/09/03 01:41:44;;;;;;;7.83;1.93;;;15.80;99.90;;;;;;5058573;28;20560;-77
2023/09/03 01:44:11;;;;;;;1.20;1.10;;;15.80;99.90;;;;;;5057679;28;20797;-77
2023/09/03 01:46:46;;;;;;;1.53;0.97;;;15.80;99.90;;;;;;5062740;28;20553;-77
2023/09/03 01:49:26;;;;;;;2.20;1.30;;;15.90;99.90;;;;;;5060286;28;20465;-79
2023/09/03 01:52:05;;;;;;;1.80;1.57;;;15.90;99.90;;;;;;5059654;28;21294;-77
2023/09/03 01:54:35;;;;;;;2.43;1.43;;;15.90;99.90;;;;;;5060827;28;20526;-77
2023/09/03 01:57:06;;;;;;;1.60;1.50;;;15.90;99.90;;;;;;5060106;28;20935;-81
2023/09/03 01:59:43;;;;;;;2.63;1.63;;;15.90;99.90;;;;;;5051894;28;20476;-77
2023/09/03 02:02:12;;;;;;;2.17;1.20;;;15.90;99.90;;;;;;5050441;28;20575;-76
2023/09/03 02:04:40;;;;;;;2.97;0.93;;;15.90;99.90;;;;;;5060174;28;20470;-80
2023/09/03 02:07:07;;;;;;;2.50;1.43;;;15.80;99.90;;;;;;5054367;28;20459;-79
2023/09/03 02:09:34;;;;;;;2.97;1.37;;;15.80;99.90;;;;;;5062164;28;20821;-76
2023/09/03 02:12:01;;;;;;;2.30;1.40;;;15.80;99.90;;;;;;5059580;28;20463;-77
2023/09/03 02:14:28;;;;;;;1.23;1.10;;;15.70;99.90;;;;;;5061466;28;20505;-79
2023/09/03 02:16:55;;;;;;;2.43;1.43;;;15.60;99.90;;;;;;5061600;28;20479;-76
2023/09/03 02:19:23;;;;;;;1.17;1.10;;;15.40;99.90;;;;;;5063492;28;20456;-76
2023/09/03 02:21:51;;;;;;;1.70;1.60;;;15.40;99.90;;;;;;5059134;28;20551;-76
2023/09/03 02:24:18;;;;;;;1.10;1.00;;;15.50;99.90;;;;;;5058194;28;20457;-78
2023/09/03 02:26:46;;;;;;;2.00;1.80;;;15.50;99.90;;;;;;5058194;28;20487;-76
2023/09/03 02:29:14;;;;;;;2.07;1.30;;;15.40;99.90;;;;;;5061505;28;20704;-76
2023/09/03 02:31:41;;;;;;;1.23;1.13;;;15.40;99.90;;;;;;5061479;28;20447;-77
2023/09/03 02:34:09;;;;;;;1.73;1.40;;;15.50;99.90;;;;;;5067921;28;20851;-78
2023/09/03 02:36:38;;;;;;;3.07;2.87;;;15.50;99.90;;;;;;5062367;28;20447;-77
2023/09/03 02:39:06;;;;;;;1.70;1.60;;;15.50;99.90;;;;;;5063123;28;20463;-77
2023/09/03 02:41:33;;;;;;;4.20;1.80;;;15.40;99.90;;;;;;5059226;28;20890;-79
2023/09/03 02:44:02;;;;;;;2.50;1.53;;;15.40;99.90;;;;;;5061344;28;20513;-78
2023/09/03 02:46:29;;;;;;;2.87;1.37;;;15.40;99.90;;;;;;5060225;28;20460;-79
2023/09/03 02:48:56;;;;;;;1.43;1.33;;;15.30;99.90;;;;;;5059218;28;20955;-77
2023/09/03 02:51:23;;;;;;;3.57;1.80;;;15.30;99.90;;;;;;5057250;28;20471;-77
2023/09/03 02:53:54;;;;;;;2.07;1.43;;;15.30;99.90;;;;;;5058753;28;20456;-78
2023/09/03 02:56:22;;;;;;;1.80;1.70;;;15.20;99.90;;;;;;5059679;28;20501;-80
2023/09/03 02:58:50;;;;;;;1.27;1.17;;;15.10;99.90;;;;;;5057286;28;20455;-77
2023/09/03 03:01:20;;;;;;;1.50;1.27;;;15.00;99.90;;;;;;5062902;28;20479;-76
2023/09/03 03:03:47;;;;;;;0.63;0.63;;;15.00;99.90;;;;;;5059100;28;20532;-76
2023/09/03 03:06:15;;;;;;;1.40;1.20;;;14.90;99.90;;;;;;5063909;28;20849;-79
2023/09/03 03:08:42;;;;;;;1.90;1.80;;;15.00;99.90;;;;;;5061165;28;20444;-76
2023/09/03 03:11:13;;;;;;;1.23;1.17;;;15.00;99.90;;;;;;5063700;28;20989;-77
2023/09/03 03:13:40;;;;;;;1.43;1.33;;;15.00;99.90;;;;;;5063452;28;20440;-77
2023/09/03 03:16:09;;;;;;;1.23;1.00;;;15.00;99.90;;;;;;5065169;28;20509;-77
2023/09/03 03:18:36;;;;;;;1.70;1.60;;;14.90;99.90;;;;;;5051866;28;20448;-77
2023/09/03 03:21:07;;;;;;;5.93;2.50;;;15.00;99.90;;;;;;5062275;28;20479;-77
2023/09/03 03:23:35;;;;;;;1.50;1.10;;;15.00;99.90;;;;;;5053511;28;20520;-77
2023/09/03 03:26:02;;;;;;;1.40;1.30;;;15.00;99.90;;;;;;5047428;28;20460;-80
2023/09/03 03:28:32;;;;;;;1.80;1.70;;;15.00;99.90;;;;;;5059611;28;20509;-80
2023/09/03 03:30:59;;;;;;;1.73;1.63;;;15.00;99.90;;;;;;5058084;28;20994;-76
2023/09/03 03:33:27;;;;;;;1.47;1.13;;;15.00;99.90;;;;;;5060389;28;20549;-76
2023/09/03 03:35:54;;;;;;;12.23;2.33;;;15.00;99.90;;;;;;5058224;28;20637;-76
2023/09/03 03:38:21;;;;;;;2.50;1.13;;;15.10;99.90;;;;;;5055285;28;20921;-78
2023/09/03 03:40:48;;;;;;;2.00;1.20;;;15.20;99.90;;;;;;5066196;28;20519;-79
2023/09/03 03:43:15;;;;;;;1.70;1.60;;;15.10;99.90;;;;;;5058279;28;20476;-76
2023/09/03 03:45:43;;;;;;;1.60;1.37;;;15.10;99.90;;;;;;5059108;28;20471;-77
2023/09/03 03:48:10;;;;;;;2.50;2.30;;;15.10;99.90;;;;;;5063068;28;20431;-77
2023/09/03 03:50:37;;;;;;;2.13;1.23;;;15.10;99.90;;;;;;5069749;28;20613;-75
2023/09/03 03:53:04;;;;;;;1.40;1.30;;;15.10;99.90;;;;;;5074453;28;20454;-77
2023/09/03 03:55:31;;;;;;;1.80;1.13;;;15.00;99.90;;;;;;5064434;28;21334;-75
2023/09/03 03:57:58;;;;;;;2.50;1.50;;;15.00;99.90;;;;;;5064706;28;20443;-76
2023/09/03 04:00:25;;;;;;;2.10;2.00;;;15.00;99.90;;;;;;5059525;28;20463;-77
2023/09/03 04:02:53;;;;;;;1.53;1.43;;;14.90;99.90;;;;;;5065892;28;20526;-77
2023/09/03 04:05:20;;;;;;;1.57;1.47;;;15.00;99.90;;;;;;5061522;28;20503;-76
2023/09/03 04:07:47;;;;;;;1.47;1.37;;;15.00;99.90;;;;;;5069021;28;21133;-77
2023/09/03 04:10:14;;;;;;;13.07;1.70;;;14.90;99.90;;;;;;5064036;28;20527;-76
2023/09/03 04:12:41;;;;;;;2.60;2.40;;;14.90;99.90;;;;;;5069180;28;20442;-76
2023/09/03 04:15:09;;;;;;;1.67;1.10;;;14.80;99.90;;;;;;5065636;28;20456;-77
2023/09/03 04:17:36;;;;;;;2.20;1.40;;;14.70;99.90;;;;;;5060180;28;21178;-79
2023/09/03 04:20:05;;;;;;;1.53;1.43;;;14.70;99.90;;;;;;5062579;28;20466;-77
2023/09/03 04:22:32;;;;;;;2.03;1.30;;;14.60;99.90;;;;;;5060815;28;21007;-77
2023/09/03 04:24:59;;;;;;;1.60;1.50;;;14.70;99.90;;;;;;5060464;28;20954;-76
2023/09/03 04:27:26;;;;;;;1.20;1.10;;;14.70;99.90;;;;;;5063774;28;20468;-76
2023/09/03 04:29:54;;;;;;;4.17;1.80;;;14.60;99.90;;;;;;5060371;28;20447;-75
2023/09/03 04:32:20;;;;;;;3.50;1.37;;;14.60;99.90;;;;;;5062059;28;20513;-76
2023/09/03 04:34:47;;;;;;;2.13;1.47;;;14.60;99.90;;;;;;5059746;28;20506;-79
2023/09/03 04:37:16;;;;;;;1.63;1.53;;;14.70;99.90;;;;;;5060539;28;20513;-76
2023/09/03 04:39:43;;;;;;;6.93;1.90;;;14.80;99.90;;;;;;5058092;28;20965;-78
2023/09/03 04:42:10;;;;;;;2.57;1.60;;;14.80;99.90;;;;;;5064582;28;20566;-76
2023/09/03 04:44:39;;;;;;;1.50;1.40;;;14.90;99.90;;;;;;5060402;28;20485;-76
2023/09/03 04:47:06;;;;;;;2.20;1.57;;;15.00;99.90;;;;;;5062355;28;20458;-78
2023/09/03 04:49:33;;;;;;;1.70;1.53;;;15.00;99.90;;;;;;5062482;28;20977;-78
2023/09/03 04:52:00;;;;;;;1.43;1.33;;;15.10;99.90;;;;;;5064665;28;20451;-76
2023/09/03 04:54:31;;;;;;;1.70;1.57;;;15.10;99.90;;;;;;5063283;28;20951;-78
2023/09/03 04:56:58;;;;;;;1.97;1.40;;;15.10;99.90;;;;;;5065661;28;21036;-76
2023/09/03 04:59:25;;;;;;;2.27;1.83;;;15.20;99.90;;;;;;5068343;28;20913;-77
2023/09/03 05:01:52;;;;;;;1.17;1.10;;;15.30;99.90;;;;;;5058554;28;20528;-76
2023/09/03 05:04:18;;;;;;;1.93;1.50;;;15.40;99.90;;;;;;5065002;28;20853;-77
2023/09/03 05:06:45;;;;;;;4.83;1.53;;;15.50;99.90;;;;;;5064417;28;20497;-78
2023/09/03 05:09:12;;;;;;;2.70;1.50;;;15.60;99.90;;;;;;5069928;28;20455;-76
2023/09/03 05:11:42;;;;;;;1.70;1.60;;;15.70;99.90;;;;;;5077836;28;20452;-75
2023/09/03 05:14:09;;;;;;;4.30;1.63;;;15.60;99.90;;;;;;5058867;28;20464;-76
2023/09/03 05:16:36;;;;;;;3.20;1.33;;;15.60;99.90;;;;;;5053207;28;20536;-77
2023/09/03 05:19:06;;;;;;;1.77;1.20;;;15.80;99.90;;;;;;5053453;28;20532;-77
2023/09/03 05:21:34;;;;;;;1.43;1.27;;;15.80;99.90;;;;;;5059949;28;20564;-80
2023/09/03 05:24:03;;;;;;;1.63;1.40;;;15.80;99.90;;;;;;5063696;28;20481;-76
2023/09/03 05:26:29;;;;;;;1.50;1.40;;;15.90;99.90;;;;;;5066046;28;20451;-76
2023/09/03 05:28:58;;;;;;;3.57;3.27;;;16.00;99.90;;;;;;5062399;28;20483;-76
2023/09/03 05:31:25;;;;;;;1.40;1.30;;;16.10;99.90;;;;;;5055351;28;20540;-84
2023/09/03 05:33:52;;;;;;;2.57;2.10;;;16.00;99.90;;;;;;5061020;28;20448;-77
2023/09/03 05:36:19;;;;;;;4.50;2.10;;;16.00;99.90;;;;;;5056413;28;20643;-77
2023/09/03 05:38:45;;;;;;;1.90;1.80;;;16.10;99.90;;;;;;5062731;28;20553;-77
2023/09/03 05:41:12;;;;;;;2.70;2.50;;;16.20;99.90;;;;;;5053583;28;20932;-76
2023/09/03 05:43:39;;;;;;;1.97;1.50;;;16.20;99.90;;;;;;5066027;28;20521;-77
2023/09/03 05:46:08;;;;;;;1.43;1.33;;;16.20;99.90;;;;;;5061378;28;20446;-76
2023/09/03 05:48:35;;;;;;;1.63;1.27;;;16.10;99.90;;;;;;5053787;28;20590;-76
2023/09/03 05:51:06;;;;;;;2.57;2.33;;;16.00;99.90;;;;;;5064002;28;20462;-77
2023/09/03 05:53:34;;;;;;;1.63;1.53;;;15.90;99.90;;;;;;5063850;28;20441;-76
2023/09/03 05:56:05;;;;;;;2.50;2.30;;;15.80;99.90;;;;;;5064468;28;20447;-77
2023/09/03 05:58:32;;;;;;;2.20;2.00;;;15.90;99.90;;;;;;5062802;28;20467;-76
2023/09/03 06:00:59;;;;;;;4.93;2.27;;;16.00;99.90;;;;;;5063981;28;21233;-76
2023/09/03 06:03:28;;;;;;;2.27;2.10;;;16.00;99.90;;;;;;5060713;28;20523;-76
2023/09/03 06:05:55;;;;;;;2.27;2.10;;;16.00;99.90;;;;;;5063332;28;20539;-77
2023/09/03 06:08:22;;;;;;;2.53;2.33;;;16.10;99.90;;;;;;5064054;28;20506;-77
2023/09/03 06:10:49;;;;;;;2.57;2.13;;;16.20;99.90;;;;;;5064228;28;20509;-76
2023/09/03 06:13:16;;;;;;;1.63;1.53;;;16.30;99.90;;;;;;5062618;28;20458;-76
2023/09/03 06:15:44;;;;;;;2.00;1.37;;;16.40;99.90;;;;;;5063832;28;20443;-79
2023/09/03 06:18:11;;;;;;;3.10;1.90;;;16.40;99.90;;;;;;5063427;28;20450;-76
2023/09/03 06:20:39;;;;;;;1.70;1.60;;;16.40;99.90;;;;;;5064913;28;20528;-78
2023/09/03 06:23:06;;;;;;;1.90;1.80;;;16.40;99.90;;;;;;5063955;28;20495;-78
2023/09/03 06:25:33;;;;;;;2.33;2.10;;;16.40;99.90;;;;;;5054548;28;20593;-78
2023/09/03 06:28:00;;;;;;;2.40;2.20;;;16.20;99.90;;;;;;5062766;28;20466;-79
2023/09/03 06:30:27;;;;;;;2.03;1.83;;;16.20;99.90;;;;;;5079355;28;20463;-80
2023/09/03 06:32:54;;;;;;;2.43;2.23;;;16.30;99.90;;;;;;5072792;28;20466;-78
2023/09/03 06:35:21;;;;;;;2.10;1.67;;;16.40;99.90;;;;;;5067457;28;20513;-79
2023/09/03 06:37:49;;;;;;;1.43;1.13;;;16.50;99.90;;;;;;5056718;28;20863;-80
2023/09/03 06:40:16;;;;;;;1.83;1.53;;;16.60;99.90;;;;;;5063690;28;20839;-78
2023/09/03 06:42:43;;;;;;;2.13;1.70;;;16.70;99.90;;;;;;5063746;28;20509;-80
2023/09/03 06:45:11;;;;;;;2.20;1.80;;;16.70;99.90;;;;;;5062087;28;21190;-79
2023/09/03 06:47:39;;;;;;;1.43;1.33;;;16.70;99.90;;;;;;5063766;28;20551;-77
2023/09/03 06:50:07;;;;;;;2.33;1.53;;;16.80;99.90;;;;;;5066752;28;21223;-76
2023/09/03 06:52:34;;;;;;;3.70;2.13;;;16.90;99.90;;;;;;5067121;28;20543;-77
2023/09/03 06:55:04;;;;;;;1.77;1.67;;;16.90;99.90;;;;;;5062880;28;20934;-77
2023/09/03 06:57:32;;;;;;;1.63;1.53;;;17.00;99.90;;;;;;5066634;28;20678;-77
2023/09/03 06:59:59;;;;;;;1.77;1.50;;;16.90;99.90;;;;;;5075029;28;20525;-76
2023/09/03 07:02:26;;;;;;;1.60;1.37;;;17.00;99.90;;;;;;5070338;28;20747;-77
2023/09/03 07:04:56;;;;;;;3.60;1.90;;;17.10;99.90;;;;;;5062434;28;20464;-80
2023/09/03 07:07:23;;;;;;;3.10;1.97;;;17.00;99.90;;;;;;5064339;28;20447;-78
2023/09/03 07:09:50;;;;;;;1.50;1.40;;;17.20;99.90;;;;;;5061411;28;20464;-77
2023/09/03 07:12:18;;;;;;;2.40;1.80;;;17.20;99.90;;;;;;5071852;28;20922;-78
2023/09/03 07:14:45;;;;;;;6.10;2.33;;;17.30;99.90;;;;;;5078655;28;20531;-79
2023/09/03 07:17:13;;;;;;;2.03;1.80;;;17.50;99.90;;;;;;5069868;28;20547;-76
2023/09/03 07:19:40;;;;;;;2.00;1.90;;;17.60;99.90;;;;;;5069011;28;20548;-77
2023/09/03 07:22:06;;;;;;;1.70;1.60;;;17.80;99.90;;;;;;5059836;28;20553;-77
2023/09/03 07:24:33;;;;;;;2.43;1.80;;;17.90;99.90;;;;;;5067530;28;20451;-78
2023/09/03 07:27:00;;;;;;;2.13;1.43;;;18.30;99.90;;;;;;5062855;28;20477;-78
2023/09/03 07:29:29;;;;;;;2.10;1.93;;;18.40;99.90;;;;;;5063065;28;20457;-81
2023/09/03 07:31:55;;;;;;;2.27;1.67;;;18.70;99.90;;;;;;5074526;28;20459;-78
2023/09/03 07:34:22;;;;;;;1.90;1.50;;;18.60;99.90;;;;;;5066694;28;20452;-79
2023/09/03 07:36:49;;;;;;;1.77;1.67;;;18.70;99.90;;;;;;5062972;28;21005;-82
2023/09/03 07:39:16;;;;;;;1.83;1.70;;;18.60;99.90;;;;;;5062667;28;20457;-78
2023/09/03 07:41:43;;;;;;;1.47;1.30;;;18.60;99.90;;;;;;5061365;28;20449;-77
2023/09/03 07:44:10;;;;;;;4.20;1.87;;;18.70;99.90;;;;;;5068534;28;20520;-80
2023/09/03 07:46:38;;;;;;;1.87;1.67;;;18.80;99.90;;;;;;5059850;28;20838;-77
2023/09/03 07:49:06;;;;;;;1.80;1.70;;;18.80;99.90;;;;;;5080015;28;20519;-76
2023/09/03 07:51:33;;;;;;;2.57;2.37;;;19.00;99.90;;;;;;5066966;28;20458;-75
2023/09/03 07:53:59;;;;;;;3.00;2.00;;;19.10;99.90;;;;;;5067659;28;20460;-77
2023/09/03 07:56:27;;;;;;;2.00;1.77;;;19.30;99.90;;;;;;5061311;28;21028;-80
2023/09/03 07:58:54;;;;;;;1.90;1.67;;;19.40;99.90;;;;;;5051765;28;20448;-77
2023/09/03 08:01:21;;;;;;;2.80;2.60;;;19.50;99.90;;;;;;5023342;28;1131581;-77
2023/09/03 08:03:49;;;;;;;2.40;1.80;;;19.60;99.90;;;;;;5064960;28;20542;-77
2023/09/03 08:06:16;;;;;;;2.67;2.40;;;19.70;99.90;;;;;;5064717;28;21013;-77
2023/09/03 08:08:44;;;;;;;2.30;2.10;;;19.80;99.90;;;;;;5057500;28;20505;-77
2023/09/03 08:11:11;;;;;;;2.60;2.40;;;19.80;99.90;;;;;;5057121;28;20448;-77
2023/09/03 08:13:37;;;;;;;3.10;2.33;;;19.90;99.90;;;;;;5052923;28;20487;-80
2023/09/03 08:16:05;;;;;;;1.90;1.80;;;20.00;99.90;;;;;;5067953;28;21027;-79
2023/09/03 08:18:32;;;;;;;1.67;1.57;;;20.20;99.90;;;;;;5066029;28;20989;-76
2023/09/03 08:21:00;;;;;;;3.67;2.20;;;20.40;99.90;;;;;;5058859;28;20440;-78
2023/09/03 08:23:28;;;;;;;2.07;1.93;;;20.30;99.90;;;;;;5052795;28;20483;-80
2023/09/03 08:25:54;;;;;;;2.40;1.80;;;20.30;99.90;;;;;;5059416;28;20507;-81
2023/09/03 08:28:21;;;;;;;2.00;1.90;;;20.30;99.90;;;;;;5067454;28;20455;-80
2023/09/03 08:30:48;;;;;;;1.77;1.47;;;20.30;99.90;;;;;;5067657;28;20537;-80
2023/09/03 08:33:15;;;;;;;1.83;1.53;;;20.40;99.90;;;;;;5068975;28;20496;-79
2023/09/03 08:35:42;;;;;;;3.77;3.47;;;20.20;99.90;;;;;;5064827;28;20544;-80
2023/09/03 08:38:10;;;;;;;2.17;1.77;;;20.10;99.90;;;;;;5068335;28;20461;-76
2023/09/03 08:40:37;;;;;;;3.23;2.20;;;20.00;99.90;;;;;;5069316;28;20470;-80
2023/09/03 08:43:07;;;;;;;6.93;2.57;;;20.00;99.90;;;;;;5068587;28;21094;-81
2023/09/03 08:45:38;;;;;;;2.07;1.87;;;19.90;99.90;;;;;;5067917;28;20554;-79
2023/09/03 08:48:05;;;;;;;1.67;1.40;;;19.70;99.90;;;;;;5065785;28;20933;-76
2023/09/03 08:50:33;;;;;;;1.80;1.70;;;19.70;99.90;;;;;;5068738;28;20438;-77
2023/09/03 08:53:01;;;;;;;1.50;1.37;;;19.80;99.90;;;;;;5068522;28;20455;-77
2023/09/03 08:55:32;;;;;;;1.90;1.80;;;19.80;99.90;;;;;;5063369;28;20448;-76
2023/09/03 08:57:59;;;;;;;1.80;1.70;;;19.80;99.90;;;;;;5062117;28;20463;-76
2023/09/03 09:00:27;;;;;;;1.83;1.20;;;20.00;99.90;;;;;;5068958;28;20439;-77
2023/09/03 09:02:55;;;;;;;4.00;2.30;;;20.30;99.90;;;;;;5054298;28;20590;-80
2023/09/03 09:05:23;;;;;;;2.60;1.60;;;20.40;99.90;;;;;;5062972;28;20492;-77
2023/09/03 09:07:51;;;;;;;1.67;1.57;;;20.30;99.90;;;;;;5062323;28;20474;-77
2023/09/03 09:10:23;;;;;;;2.00;1.80;;;20.30;99.90;;;;;;5067595;28;20711;-79
2023/09/03 09:13:01;;;;;;;2.63;2.43;;;20.10;99.90;;;;;;5058521;28;20452;-76
2023/09/03 09:15:28;;;;;;;2.67;1.87;;;20.20;99.90;;;;;;5061056;28;20935;-77
2023/09/03 09:17:55;;;;;;;2.07;1.30;;;20.40;99.90;;;;;;5055626;28;20513;-76
2023/09/03 09:20:22;;;;;;;1.77;1.67;;;20.70;99.90;;;;;;5067132;28;20499;-76
2023/09/03 09:22:50;;;;;;;1.60;1.50;;;21.00;99.90;;;;;;5068355;28;20483;-79
2023/09/03 09:25:22;;;;;;;3.10;2.80;;;21.40;99.90;;;;;;5066344;28;20467;-80
2023/09/03 09:27:49;;;;;;;2.87;2.13;;;21.70;99.90;;;;;;5065933;28;20494;-77
2023/09/03 09:30:19;;;;;;;1.80;1.70;;;21.70;99.90;;;;;;5067979;28;20432;-80
2023/09/03 09:32:47;;;;;;;3.03;2.13;;;21.80;99.90;;;;;;5066978;28;20471;-77
2023/09/03 09:35:24;;;;;;;5.30;2.07;;;21.80;99.90;;;;;;5066515;28;20843;-77
2023/09/03 09:37:52;;;;;;;2.07;1.97;;;21.90;99.90;;;;;;5066622;28;20505;-77
2023/09/03 09:40:27;;;;;;;1.67;1.57;;;21.90;99.90;;;;;;5067665;28;20463;-78
2023/09/03 09:42:56;;;;;;;1.83;1.70;;;22.10;99.90;;;;;;5067517;28;20831;-78
2023/09/03 09:45:25;;;;;;;1.73;1.63;;;22.40;99.90;;;;;;5067355;28;20864;-79
2023/09/03 09:48:04;;;;;;;2.53;2.33;;;22.90;99.90;;;;;;5066212;28;20444;-76
2023/09/03 09:50:34;;;;;;;1.97;1.87;;;23.20;99.90;;;;;;5058294;28;20523;-77
2023/09/03 09:53:02;;;;;;;1.97;1.83;;;23.40;99.90;;;;;;5066587;28;20522;-80
2023/09/03 09:55:32;;;;;;;15.73;2.57;;;23.20;99.90;;;;;;5067234;28;20486;-81
2023/09/03 09:57:59;;;;;;;0.97;0.97;;;23.00;99.90;;;;;;5065305;28;20460;-78
2023/09/03 10:00:34;;;;;;;1.17;1.07;;;23.30;99.90;;;;;;5066666;28;20966;-80
2023/09/03 10:03:02;;;;;;;3.03;1.13;;;23.30;99.90;;;;;;5066939;28;20528;-76
2023/09/03 10:05:29;;;;;;;1.73;1.63;;;23.10;99.90;;;;;;5065999;28;20471;-82
2023/09/03 10:07:56;;;;;;;1.67;1.57;;;23.20;99.90;;;;;;5066977;28;20540;-77
2023/09/03 10:10:23;;;;;;;1.70;1.20;;;23.20;99.90;;;;;;5053361;28;20444;-77
2023/09/03 10:12:50;;;;;;;1.63;1.53;;;23.30;99.90;;;;;;5067394;28;20922;-77
2023/09/03 10:15:17;;;;;;;2.10;1.07;;;23.60;99.90;;;;;;5064498;28;20460;-79
2023/09/03 10:17:52;;;;;;;2.20;0.90;;;23.70;99.90;;;;;;5066284;28;20443;-77
2023/09/03 10:20:22;;;;;;;1.53;1.30;;;23.70;99.90;;;;;;5064563;28;20529;-77
2023/09/03 10:22:51;;;;;;;2.60;1.30;;;23.70;99.90;;;;;;5066826;28;20505;-77
2023/09/03 10:25:23;;;;;;;1.20;1.10;;;23.80;99.90;;;;;;5066413;28;20913;-78
2023/09/03 10:27:53;;;;;;;1.17;1.17;;;23.80;99.90;;;;;;5072566;28;20489;-78
2023/09/03 10:30:26;;;;;;;1.63;1.00;;;23.80;99.90;;;;;;5068104;28;20440;-79
2023/09/03 10:32:55;;;;;;;1.60;0.87;;;23.70;99.90;;;;;;5069499;28;20475;-75
2023/09/03 10:35:22;;;;;;;2.00;1.50;;;23.50;99.90;;;;;;5067042;28;20440;-76
2023/09/03 10:37:51;;;;;;;1.30;1.20;;;23.70;99.90;;;;;;5062248;28;20460;-76
2023/09/03 10:40:19;;;;;;;1.77;1.17;;;23.70;99.90;;;;;;5066485;28;20839;-77
2023/09/03 10:42:46;;;;;;;1.10;1.00;;;23.80;99.90;;;;;;5057506;28;20541;-77
2023/09/03 10:45:14;;;;;;;1.03;0.93;;;23.80;99.90;;;;;;5065717;28;20436;-78
2023/09/03 10:50:44;;;;;;;1.40;1.30;;;23.80;99.90;;;;;;5085825;27;20532;-76
2023/09/03 10:53:31;;;;;;;2.10;1.30;;;23.70;99.90;;;;;;5084768;28;20535;-75
2023/09/03 10:56:08;;;;;;;1.27;1.17;;;23.70;99.90;;;;;;5083471;28;20504;-82
2023/09/03 10:58:34;;;;;;;1.13;1.03;;;24.10;99.90;;;;;;5079886;28;20858;-76
2023/09/03 11:01:24;;;;;;;1.30;1.20;;;24.40;99.90;;;;;;5075912;28;21094;-77
2023/09/03 11:03:52;;;;;;;1.67;0.87;;;24.40;99.90;;;;;;5070392;28;20450;-77
2023/09/03 11:06:22;;;;;;;1.27;1.17;;;24.30;99.90;;;;;;5080374;28;21006;-76
2023/09/03 11:09:09;;;;;;;1.53;0.90;;;24.20;99.90;;;;;;5083686;28;21122;-76
2023/09/03 11:11:38;;;;;;;0.80;0.80;;;24.40;99.90;;;;;;5083884;28;20493;-80
2023/09/03 11:14:06;;;;;;;2.60;1.07;;;24.20;99.90;;;;;;5082727;28;20447;-76
2023/09/03 11:16:35;;;;;;;1.00;0.90;;;24.40;99.90;;;;;;5083098;28;20609;-79
2023/09/03 11:19:04;;;;;;;0.70;0.70;;;24.70;99.90;;;;;;5083565;28;20447;-77
2023/09/03 11:21:32;;;;;;;1.07;0.70;;;24.70;99.90;;;;;;5081803;28;21156;-76
2023/09/03 11:24:03;;;;;;;0.63;0.60;;;24.50;99.90;;;;;;5083370;28;20444;-77
2023/09/03 11:26:31;;;;;;;1.27;1.17;;;24.40;99.90;;;;;;5079661;28;20882;-77
2023/09/03 11:28:58;;;;;;;3.83;0.90;;;24.50;99.90;;;;;;5083016;28;20552;-77
2023/09/03 11:31:25;;;;;;;1.00;0.90;;;24.50;99.90;;;;;;5083966;28;21034;-77
2023/09/03 11:33:52;;;;;;;1.03;1.03;;;24.40;99.90;;;;;;5083093;28;20491;-78
2023/09/03 11:36:21;;;;;;;0.90;0.77;;;24.60;99.90;;;;;;5082904;28;20447;-78
2023/09/03 11:38:50;;;;;;;1.07;0.97;;;24.30;99.90;;;;;;5079339;28;21075;-78
2023/09/03 11:41:18;;;;;;;0.87;0.60;;;24.40;99.90;;;;;;5083282;28;20471;-75
2023/09/03 11:43:46;;;;;;;1.13;0.70;;;24.80;99.90;;;;;;5083394;28;21216;-79
2023/09/03 11:46:14;;;;;;;1.23;1.13;;;24.60;99.90;;;;;;5084093;28;20454;-78
2023/09/03 11:48:41;;;;;;;1.20;0.83;;;24.50;99.90;;;;;;5095274;28;21064;-76
2023/09/03 11:51:09;;;;;;;0.93;0.60;;;24.40;99.90;;;;;;5084113;28;20491;-76
2023/09/03 11:53:40;;;;;;;0.90;0.70;;;24.60;99.90;;;;;;5085578;28;20439;-76
2023/09/03 11:56:11;;;;;;;1.50;0.70;;;24.80;99.90;;;;;;5081783;28;20501;-76
2023/09/03 11:58:39;;;;;;;0.83;0.60;;;24.90;99.90;;;;;;5082896;28;20938;-77
2023/09/03 12:01:08;;;;;;;1.90;0.80;;;24.90;99.90;;;;;;5075878;28;20506;-77
2023/09/03 12:03:38;;;;;;;0.77;0.60;;;24.60;99.90;;;;;;5053808;28;20922;-78
2023/09/03 12:06:05;;;;;;;1.10;0.50;;;24.80;99.90;;;;;;5063977;28;21189;-78
2023/09/03 12:08:33;;;;;;;0.70;0.60;;;25.10;99.90;;;;;;5067793;28;20440;-79
2023/09/03 12:11:00;;;;;;;0.83;0.60;;;24.90;99.90;;;;;;5064999;28;20547;-77
2023/09/03 12:13:33;;;;;;;0.70;0.70;;;24.70;99.90;;;;;;5068088;28;20444;-78
2023/09/03 12:16:07;;;;;;;0.80;0.60;;;24.80;99.90;;;;;;5061855;28;20468;-81
2023/09/03 12:18:35;;;;;;;0.70;0.60;;;24.90;99.90;;;;;;5068084;28;20546;-78
2023/09/03 12:21:03;;;;;;;0.50;0.40;;;24.80;99.90;;;;;;5061069;28;20962;-76
2023/09/03 12:23:30;;;;;;;0.70;0.67;;;24.80;99.90;;;;;;5069824;28;20478;-78
2023/09/03 12:25:57;;;;;;;1.20;0.57;;;24.70;99.90;;;;;;5066587;28;20832;-79
2023/09/03 12:28:36;;;;;;;0.53;0.53;;;24.90;99.90;;;;;;5067717;28;20471;-78
2023/09/03 12:31:04;;;;;;;0.60;0.60;;;25.10;99.90;;;;;;5067180;28;21319;-78
2023/09/03 12:33:48;;;;;;;0.50;0.50;;;25.20;99.90;;;;;;5068383;28;20456;-78
2023/09/03 12:36:17;;;;;;;0.77;0.50;;;25.30;99.90;;;;;;5065786;28;20456;-80
2023/09/03 12:38:57;;;;;;;0.63;0.50;;;25.10;99.90;;;;;;5068170;28;20459;-78
2023/09/03 12:41:26;;;;;;;0.50;0.47;;;25.20;99.90;;;;;;5059265;28;20605;-77
2023/09/03 12:43:56;;;;;;;0.60;0.40;;;25.00;99.50;;;;;;5057455;28;20532;-77
2023/09/03 12:46:23;;;;;;;0.77;0.40;;;24.80;99.30;;;;;;5051524;28;21039;-83
2023/09/03 12:48:50;;;;;;;0.50;0.40;;;24.80;98.80;;;;;;5063090;28;20488;-78
2023/09/03 12:51:18;;;;;;;0.57;0.40;;;24.70;99.10;;;;;;5057168;28;20584;-78
2023/09/03 12:53:47;;;;;;;0.50;0.40;;;24.50;99.60;;;;;;5063577;28;20443;-79
2023/09/03 12:56:14;;;;;;;0.53;0.50;;;24.30;98.40;;;;;;5067532;28;20471;-75